Miemaru — JL6277 — position and weather

sailwx.info

Track history (hours):
 
Tides and Currents Weather Stations Pressure Air Temp Water Temp Dewpoint Dewpoint Depression Visibility Wind Speed Wind Dir Waves Ship Positions

Miemaru

Last reported at 2017-Oct-12 13:04 UTC. Time now 2017-Oct-20 12:42 UTC.
Position N 34°50' E 139°11'.

Length 75 m; draft 3.7 m.

Type: Cargo ship. MMSI: 431500599.

Date/timePositionNaut miles runAvg speedWind from/ knotsBaromVisibWave heightAir tempDewpointWater temp
2017-Oct-12 13:04N 34°50' E 139°11'110.6
2017-Oct-12 12:59N 34°51' E 139°12'14 9.3
2017-Oct-12 11:32N 34°59' E 139°25'0 9.0
2017-Oct-12 11:30N 34°59' E 139°26'5 9.6
2017-Oct-12 11:00N 35°02' E 139°31'510.0
2017-Oct-12 10:31N 35°04' E 139°36'510.4
2017-Oct-12 10:01N 35°07' E 139°41'5 9.9
2017-Oct-12 09:31N 35°11' E 139°45'510.3
2017-Oct-12 09:01N 35°16' E 139°46'611.2
2017-Oct-12 08:30N 35°21' E 139°42'510.8
2017-Oct-12 08:00N 35°26' E 139°44'5 9.2
2017-Oct-12 07:30N 35°30' E 139°47'1 2.6
2017-Oct-12 07:00N 35°30' E 139°45'0 0.0
2017-Oct-12 06:29N 35°30' E 139°45'0 0.0
2017-Oct-12 05:59N 35°30' E 139°45'0 0.0
2017-Oct-12 05:29N 35°30' E 139°45'0 0.0
2017-Oct-12 04:59N 35°30' E 139°45'0 0.0
2017-Oct-12 04:29N 35°30' E 139°45'0 0.0
2017-Oct-12 03:59N 35°30' E 139°45'0 0.0
2017-Oct-12 03:26N 35°30' E 139°45'0 0.0
2017-Oct-12 02:59N 35°30' E 139°45'0 0.0
2017-Oct-12 02:29N 35°30' E 139°45'0 0.0
2017-Oct-12 01:59N 35°30' E 139°45'0 0.0
2017-Oct-12 01:26N 35°30' E 139°45'7 0.1
2017-Oct-09 22:48N 35°37' E 139°48'2 6.4
2017-Oct-09 22:25N 35°36' E 139°50'10 0.4
2017-Oct-08 22:23N 35°26' E 139°48'710.7
2017-Oct-08 21:45N 35°20' E 139°44'310.4
2017-Oct-08 21:30N 35°17' E 139°45'510.8
2017-Oct-08 21:00N 35°12' E 139°47'611.3
2017-Oct-08 20:30N 35°07' E 139°45'510.8
2017-Oct-08 20:00N 35°03' E 139°40'611.2
2017-Oct-08 19:30N 34°59' E 139°35'  
Track history (hours):
 
Tides and Currents Weather Stations Pressure Air Temp Water Temp Dewpoint Dewpoint Depression Visibility Wind Speed Wind Dir Waves Ship Positions

Miemaru

Last reported at 2017-Oct-12 13:04 UTC. Time now 2017-Oct-20 12:42 UTC.
Position N 34°50' E 139°11'.

Length 75 m; draft 3.7 m.

Type: Cargo ship. MMSI: 431500599.

Date/timePositionNaut miles runAvg speedWind from/ knotsBaromVisibWave heightAir tempDewpointWater temp
2017-Oct-12 13:04N 34°50' E 139°11'110.6
2017-Oct-12 12:59N 34°51' E 139°12'14 9.3
2017-Oct-12 11:32N 34°59' E 139°25'0 9.0
2017-Oct-12 11:30N 34°59' E 139°26'5 9.6
2017-Oct-12 11:00N 35°02' E 139°31'510.0
2017-Oct-12 10:31N 35°04' E 139°36'510.4
2017-Oct-12 10:01N 35°07' E 139°41'5 9.9
2017-Oct-12 09:31N 35°11' E 139°45'510.3
2017-Oct-12 09:01N 35°16' E 139°46'611.2
2017-Oct-12 08:30N 35°21' E 139°42'510.8
2017-Oct-12 08:00N 35°26' E 139°44'5 9.2
2017-Oct-12 07:30N 35°30' E 139°47'1 2.6
2017-Oct-12 07:00N 35°30' E 139°45'0 0.0
2017-Oct-12 06:29N 35°30' E 139°45'0 0.0
2017-Oct-12 05:59N 35°30' E 139°45'0 0.0
2017-Oct-12 05:29N 35°30' E 139°45'0 0.0
2017-Oct-12 04:59N 35°30' E 139°45'0 0.0
2017-Oct-12 04:29N 35°30' E 139°45'0 0.0
2017-Oct-12 03:59N 35°30' E 139°45'0 0.0
2017-Oct-12 03:26N 35°30' E 139°45'0 0.0
2017-Oct-12 02:59N 35°30' E 139°45'0 0.0
2017-Oct-12 02:29N 35°30' E 139°45'0 0.0
2017-Oct-12 01:59N 35°30' E 139°45'0 0.0
2017-Oct-12 01:26N 35°30' E 139°45'7 0.1
2017-Oct-09 22:48N 35°37' E 139°48'2 6.4
2017-Oct-09 22:25N 35°36' E 139°50'10 0.4
2017-Oct-08 22:23N 35°26' E 139°48'710.7
2017-Oct-08 21:45N 35°20' E 139°44'310.4
2017-Oct-08 21:30N 35°17' E 139°45'510.8
2017-Oct-08 21:00N 35°12' E 139°47'611.3
2017-Oct-08 20:30N 35°07' E 139°45'510.8
2017-Oct-08 20:00N 35°03' E 139°40'611.2
2017-Oct-08 19:30N 34°59' E 139°35'  

Dump ship's entire track history